グアダラハラ の空港の天気 - METARとTAF

ドン・ミゲル・イダルゴ・イ・コスティージャ国際空港 ( MMGL / GDL ) - メキシコ ハリスコ州グアダラハラ
飛行場実況気象(Metar)
観測時間11/27 03:03 CST (11/27 09:03 UTC)
風向・風速静穏 0m/s
視程10km以上
天気現象
なし
気温11℃
湿度76%
気圧1012.4hPa
METARMMGL 270903Z RTD 00000KT 10SM SKC 11/07 A3019 RMK SLP124 57010 954
過去の天気等 Google飛行場航空写真 Wunderground天気予報

過去48時間のMETAR

飛行場予報(TAF)
発表時間: 11/26 22:31 CST (11/27 04:31 UTC)
予報対象時間: 27日0時 CST ~ 28日6時 CST
風向・風速南西 3m/s
視程10km以上
なし
27日5時 CST ~ 27日9時 CST に一時的に
視程4830m
天気現象もや 煙霧
全天の4割程度の雲 雲底高度 610m
27日12時 CST から
風向・風速南西 5m/s
視程10km以上
全天の4割程度の雲 雲底高度 910m
全天の4割程度の雲 雲底高度 2740m
全天の8割程度の雲 雲底高度 7620m
28日0時 CST から
風向・風速南西 3m/s
視程10km以上
全天の4割程度の雲 雲底高度 7620m
TAF MMGL 270431Z 2706/2812 22005KT P6SM SKC TX26/2721Z TN12/2712Z
TEMPO 2711/2715 3SM BR HZ SCT020
FM271800 22010KT P6SM SCT030 SCT090 BKN250
FM280600 22005KT P6SM SCT250